sensor_id;sensor_type;location;lat;lon;timestamp;P1;durP1;ratioP1;P2;durP2;ratioP2
5955;SDS011;3004;48.080;11.600;2022-07-29T00:00:20;97.57;;;6.53;;
5955;SDS011;3004;48.080;11.600;2022-07-29T00:02:48;97.27;;;6.50;;
5955;SDS011;3004;48.080;11.600;2022-07-29T00:05:15;98.00;;;7.20;;
5955;SDS011;3004;48.080;11.600;2022-07-29T00:07:50;97.80;;;6.40;;
5955;SDS011;3004;48.080;11.600;2022-07-29T00:10:17;98.10;;;6.90;;
5955;SDS011;3004;48.080;11.600;2022-07-29T00:12:46;97.47;;;6.33;;
5955;SDS011;3004;48.080;11.600;2022-07-29T00:15:13;97.90;;;6.40;;
5955;SDS011;3004;48.080;11.600;2022-07-29T00:17:40;97.77;;;6.47;;
5955;SDS011;3004;48.080;11.600;2022-07-29T00:20:07;97.80;;;6.30;;
5955;SDS011;3004;48.080;11.600;2022-07-29T00:22:36;98.30;;;6.67;;
5955;SDS011;3004;48.080;11.600;2022-07-29T00:25:04;98.40;;;6.57;;
5955;SDS011;3004;48.080;11.600;2022-07-29T00:27:32;98.47;;;7.30;;
5955;SDS011;3004;48.080;11.600;2022-07-29T00:30:04;98.80;;;8.07;;
5955;SDS011;3004;48.080;11.600;2022-07-29T00:32:32;98.67;;;7.60;;
5955;SDS011;3004;48.080;11.600;2022-07-29T00:35:00;98.20;;;6.73;;
5955;SDS011;3004;48.080;11.600;2022-07-29T00:37:45;98.00;;;6.60;;
5955;SDS011;3004;48.080;11.600;2022-07-29T00:40:12;98.20;;;6.80;;
5955;SDS011;3004;48.080;11.600;2022-07-29T00:42:42;98.17;;;6.60;;
5955;SDS011;3004;48.080;11.600;2022-07-29T00:45:15;98.20;;;7.00;;
5955;SDS011;3004;48.080;11.600;2022-07-29T00:47:44;98.30;;;6.70;;
5955;SDS011;3004;48.080;11.600;2022-07-29T00:50:12;98.27;;;6.50;;
5955;SDS011;3004;48.080;11.600;2022-07-29T00:52:40;98.40;;;7.30;;
5955;SDS011;3004;48.080;11.600;2022-07-29T00:55:10;98.30;;;6.30;;
5955;SDS011;3004;48.080;11.600;2022-07-29T00:57:40;97.67;;;6.20;;
5955;SDS011;3004;48.080;11.600;2022-07-29T01:00:11;98.10;;;6.13;;
5955;SDS011;3004;48.080;11.600;2022-07-29T01:02:47;98.17;;;6.20;;
5955;SDS011;3004;48.080;11.600;2022-07-29T01:05:19;97.77;;;6.03;;
5955;SDS011;3004;48.080;11.600;2022-07-29T01:07:47;98.13;;;5.97;;
5955;SDS011;3004;48.080;11.600;2022-07-29T01:10:17;98.60;;;6.90;;
5955;SDS011;3004;48.080;11.600;2022-07-29T01:12:55;98.70;;;6.67;;
5955;SDS011;3004;48.080;11.600;2022-07-29T01:15:54;98.60;;;6.90;;
5955;SDS011;3004;48.080;11.600;2022-07-29T01:18:33;99.57;;;8.90;;
5955;SDS011;3004;48.080;11.600;2022-07-29T01:21:23;98.23;;;6.93;;
5955;SDS011;3004;48.080;11.600;2022-07-29T01:24:01;98.30;;;6.10;;
5955;SDS011;3004;48.080;11.600;2022-07-29T01:26:51;98.20;;;6.30;;
5955;SDS011;3004;48.080;11.600;2022-07-29T01:29:26;97.87;;;6.30;;
5955;SDS011;3004;48.080;11.600;2022-07-29T01:31:59;97.63;;;6.07;;
5955;SDS011;3004;48.080;11.600;2022-07-29T01:34:35;97.50;;;6.27;;
5955;SDS011;3004;48.080;11.600;2022-07-29T01:37:12;98.27;;;6.90;;
5955;SDS011;3004;48.080;11.600;2022-07-29T01:39:47;98.43;;;7.23;;
5955;SDS011;3004;48.080;11.600;2022-07-29T01:42:20;98.77;;;7.60;;
5955;SDS011;3004;48.080;11.600;2022-07-29T01:44:55;98.80;;;8.00;;
5955;SDS011;3004;48.080;11.600;2022-07-29T01:47:30;99.07;;;8.50;;
5955;SDS011;3004;48.080;11.600;2022-07-29T01:50:01;98.07;;;7.10;;
5955;SDS011;3004;48.080;11.600;2022-07-29T01:52:46;98.47;;;6.90;;
5955;SDS011;3004;48.080;11.600;2022-07-29T01:55:18;97.47;;;5.80;;
5955;SDS011;3004;48.080;11.600;2022-07-29T01:57:48;98.90;;;6.77;;
5955;SDS011;3004;48.080;11.600;2022-07-29T02:00:17;98.40;;;6.80;;
5955;SDS011;3004;48.080;11.600;2022-07-29T02:02:45;98.00;;;6.53;;
5955;SDS011;3004;48.080;11.600;2022-07-29T02:05:15;98.40;;;6.90;;
5955;SDS011;3004;48.080;11.600;2022-07-29T02:07:46;98.17;;;6.20;;
5955;SDS011;3004;48.080;11.600;2022-07-29T02:10:20;98.27;;;6.67;;
5955;SDS011;3004;48.080;11.600;2022-07-29T02:12:52;98.20;;;6.37;;
5955;SDS011;3004;48.080;11.600;2022-07-29T02:15:24;98.80;;;6.10;;
5955;SDS011;3004;48.080;11.600;2022-07-29T02:17:59;98.37;;;6.13;;
5955;SDS011;3004;48.080;11.600;2022-07-29T02:20:28;98.50;;;6.53;;
5955;SDS011;3004;48.080;11.600;2022-07-29T02:22:58;98.87;;;7.23;;
5955;SDS011;3004;48.080;11.600;2022-07-29T02:25:26;98.70;;;7.20;;
5955;SDS011;3004;48.080;11.600;2022-07-29T02:27:55;98.80;;;7.07;;
5955;SDS011;3004;48.080;11.600;2022-07-29T02:30:25;98.37;;;6.30;;
5955;SDS011;3004;48.080;11.600;2022-07-29T02:32:54;99.80;;;8.20;;
5955;SDS011;3004;48.080;11.600;2022-07-29T02:35:22;99.20;;;6.60;;
5955;SDS011;3004;48.080;11.600;2022-07-29T02:37:50;99.47;;;6.60;;
5955;SDS011;3004;48.080;11.600;2022-07-29T02:40:32;99.77;;;7.17;;
5955;SDS011;3004;48.080;11.600;2022-07-29T02:43:01;99.80;;;7.43;;
5955;SDS011;3004;48.080;11.600;2022-07-29T02:45:34;100.20;;;8.30;;
5955;SDS011;3004;48.080;11.600;2022-07-29T02:48:03;101.27;;;9.33;;
5955;SDS011;3004;48.080;11.600;2022-07-29T02:50:37;100.60;;;7.80;;
5955;SDS011;3004;48.080;11.600;2022-07-29T02:53:12;101.10;;;7.63;;
5955;SDS011;3004;48.080;11.600;2022-07-29T02:55:43;100.37;;;7.40;;
5955;SDS011;3004;48.080;11.600;2022-07-29T02:58:18;100.07;;;7.43;;
5955;SDS011;3004;48.080;11.600;2022-07-29T03:00:55;100.07;;;7.50;;
5955;SDS011;3004;48.080;11.600;2022-07-29T03:03:24;100.07;;;7.00;;
5955;SDS011;3004;48.080;11.600;2022-07-29T03:05:55;100.47;;;7.10;;
5955;SDS011;3004;48.080;11.600;2022-07-29T03:08:23;100.87;;;8.87;;
5955;SDS011;3004;48.080;11.600;2022-07-29T03:10:51;99.80;;;6.80;;
5955;SDS011;3004;48.080;11.600;2022-07-29T03:13:19;99.37;;;5.87;;
5955;SDS011;3004;48.080;11.600;2022-07-29T03:15:49;99.80;;;6.67;;
5955;SDS011;3004;48.080;11.600;2022-07-29T03:18:20;99.80;;;6.70;;
5955;SDS011;3004;48.080;11.600;2022-07-29T03:20:48;99.90;;;6.30;;
5955;SDS011;3004;48.080;11.600;2022-07-29T03:23:18;100.40;;;6.10;;
5955;SDS011;3004;48.080;11.600;2022-07-29T03:25:46;101.00;;;6.90;;
5955;SDS011;3004;48.080;11.600;2022-07-29T03:28:15;101.10;;;7.13;;
5955;SDS011;3004;48.080;11.600;2022-07-29T03:30:45;100.50;;;6.40;;
5955;SDS011;3004;48.080;11.600;2022-07-29T03:33:12;100.50;;;6.20;;
5955;SDS011;3004;48.080;11.600;2022-07-29T03:35:41;100.90;;;6.30;;
5955;SDS011;3004;48.080;11.600;2022-07-29T03:38:08;100.97;;;6.27;;
5955;SDS011;3004;48.080;11.600;2022-07-29T03:40:40;101.10;;;5.73;;
5955;SDS011;3004;48.080;11.600;2022-07-29T03:43:12;101.20;;;6.40;;
5955;SDS011;3004;48.080;11.600;2022-07-29T03:45:44;102.87;;;6.10;;
5955;SDS011;3004;48.080;11.600;2022-07-29T03:48:16;101.83;;;6.20;;
5955;SDS011;3004;48.080;11.600;2022-07-29T03:50:48;102.07;;;6.27;;
5955;SDS011;3004;48.080;11.600;2022-07-29T03:53:18;102.07;;;6.13;;
5955;SDS011;3004;48.080;11.600;2022-07-29T03:55:47;101.97;;;6.07;;
5955;SDS011;3004;48.080;11.600;2022-07-29T03:58:18;102.40;;;6.10;;
5955;SDS011;3004;48.080;11.600;2022-07-29T04:00:47;105.60;;;7.20;;
5955;SDS011;3004;48.080;11.600;2022-07-29T04:03:15;102.70;;;6.10;;
5955;SDS011;3004;48.080;11.600;2022-07-29T04:05:42;102.50;;;5.90;;
5955;SDS011;3004;48.080;11.600;2022-07-29T04:08:11;102.47;;;5.73;;
5955;SDS011;3004;48.080;11.600;2022-07-29T04:10:38;103.43;;;6.17;;
5955;SDS011;3004;48.080;11.600;2022-07-29T04:13:06;103.50;;;6.23;;
5955;SDS011;3004;48.080;11.600;2022-07-29T04:15:33;104.20;;;6.30;;
5955;SDS011;3004;48.080;11.600;2022-07-29T04:18:00;104.70;;;6.53;;
5955;SDS011;3004;48.080;11.600;2022-07-29T04:20:27;104.00;;;6.30;;
5955;SDS011;3004;48.080;11.600;2022-07-29T04:22:54;104.90;;;6.80;;
5955;SDS011;3004;48.080;11.600;2022-07-29T04:25:24;104.37;;;6.23;;
5955;SDS011;3004;48.080;11.600;2022-07-29T04:27:51;104.23;;;6.20;;
5955;SDS011;3004;48.080;11.600;2022-07-29T04:30:26;104.90;;;6.63;;
5955;SDS011;3004;48.080;11.600;2022-07-29T04:32:55;105.40;;;6.90;;
5955;SDS011;3004;48.080;11.600;2022-07-29T04:35:42;105.07;;;6.60;;
5955;SDS011;3004;48.080;11.600;2022-07-29T04:38:18;106.10;;;6.97;;
5955;SDS011;3004;48.080;11.600;2022-07-29T04:40:47;105.00;;;6.00;;
5955;SDS011;3004;48.080;11.600;2022-07-29T04:43:36;105.17;;;6.13;;
5955;SDS011;3004;48.080;11.600;2022-07-29T04:46:26;105.47;;;6.17;;
5955;SDS011;3004;48.080;11.600;2022-07-29T04:48:53;104.63;;;6.10;;
5955;SDS011;3004;48.080;11.600;2022-07-29T04:51:20;105.90;;;6.30;;
5955;SDS011;3004;48.080;11.600;2022-07-29T04:53:48;105.77;;;6.10;;
5955;SDS011;3004;48.080;11.600;2022-07-29T04:56:24;105.97;;;6.77;;
5955;SDS011;3004;48.080;11.600;2022-07-29T04:59:02;106.00;;;5.93;;
5955;SDS011;3004;48.080;11.600;2022-07-29T05:01:30;105.80;;;6.97;;
5955;SDS011;3004;48.080;11.600;2022-07-29T05:03:59;106.80;;;8.87;;
5955;SDS011;3004;48.080;11.600;2022-07-29T05:06:34;106.27;;;9.00;;
5955;SDS011;3004;48.080;11.600;2022-07-29T05:09:03;105.47;;;7.43;;
5955;SDS011;3004;48.080;11.600;2022-07-29T05:11:32;105.50;;;6.97;;
5955;SDS011;3004;48.080;11.600;2022-07-29T05:13:59;104.90;;;7.53;;
5955;SDS011;3004;48.080;11.600;2022-07-29T05:16:25;104.30;;;7.07;;
5955;SDS011;3004;48.080;11.600;2022-07-29T05:18:55;103.77;;;6.20;;
5955;SDS011;3004;48.080;11.600;2022-07-29T05:21:22;103.70;;;6.00;;
5955;SDS011;3004;48.080;11.600;2022-07-29T05:23:51;103.47;;;6.17;;
5955;SDS011;3004;48.080;11.600;2022-07-29T05:26:20;104.20;;;6.70;;
5955;SDS011;3004;48.080;11.600;2022-07-29T05:28:49;103.80;;;6.90;;
5955;SDS011;3004;48.080;11.600;2022-07-29T05:31:18;103.90;;;6.80;;
5955;SDS011;3004;48.080;11.600;2022-07-29T05:33:45;103.30;;;6.17;;
5955;SDS011;3004;48.080;11.600;2022-07-29T05:36:13;103.50;;;6.10;;
5955;SDS011;3004;48.080;11.600;2022-07-29T05:38:40;103.77;;;6.10;;
5955;SDS011;3004;48.080;11.600;2022-07-29T05:41:07;103.17;;;5.90;;
5955;SDS011;3004;48.080;11.600;2022-07-29T05:43:34;103.40;;;6.80;;
5955;SDS011;3004;48.080;11.600;2022-07-29T05:46:02;102.80;;;6.43;;
5955;SDS011;3004;48.080;11.600;2022-07-29T05:48:30;102.67;;;7.70;;
5955;SDS011;3004;48.080;11.600;2022-07-29T05:50:57;102.50;;;6.60;;
5955;SDS011;3004;48.080;11.600;2022-07-29T05:53:24;101.80;;;8.30;;
5955;SDS011;3004;48.080;11.600;2022-07-29T05:56:12;101.00;;;7.70;;
5955;SDS011;3004;48.080;11.600;2022-07-29T05:58:39;100.57;;;6.60;;
5955;SDS011;3004;48.080;11.600;2022-07-29T06:01:08;101.20;;;8.40;;
5955;SDS011;3004;48.080;11.600;2022-07-29T06:03:37;100.77;;;9.00;;
5955;SDS011;3004;48.080;11.600;2022-07-29T06:06:08;99.70;;;6.97;;
5955;SDS011;3004;48.080;11.600;2022-07-29T06:08:38;99.67;;;6.70;;
5955;SDS011;3004;48.080;11.600;2022-07-29T06:11:05;99.80;;;7.57;;
5955;SDS011;3004;48.080;11.600;2022-07-29T06:13:36;100.53;;;9.13;;
5955;SDS011;3004;48.080;11.600;2022-07-29T06:16:03;99.60;;;7.63;;
5955;SDS011;3004;48.080;11.600;2022-07-29T06:18:32;99.60;;;7.20;;
5955;SDS011;3004;48.080;11.600;2022-07-29T06:21:00;100.07;;;8.00;;
5955;SDS011;3004;48.080;11.600;2022-07-29T06:23:27;99.80;;;8.50;;
5955;SDS011;3004;48.080;11.600;2022-07-29T06:25:54;100.57;;;9.63;;
5955;SDS011;3004;48.080;11.600;2022-07-29T06:28:23;99.57;;;8.70;;
5955;SDS011;3004;48.080;11.600;2022-07-29T06:30:52;98.53;;;6.80;;
5955;SDS011;3004;48.080;11.600;2022-07-29T06:33:19;98.07;;;6.57;;
5955;SDS011;3004;48.080;11.600;2022-07-29T06:35:47;99.10;;;7.00;;
5955;SDS011;3004;48.080;11.600;2022-07-29T06:38:15;99.00;;;6.77;;
5955;SDS011;3004;48.080;11.600;2022-07-29T06:40:42;98.87;;;7.00;;
5955;SDS011;3004;48.080;11.600;2022-07-29T06:43:27;98.63;;;7.03;;
5955;SDS011;3004;48.080;11.600;2022-07-29T06:45:57;98.70;;;6.63;;
5955;SDS011;3004;48.080;11.600;2022-07-29T06:48:29;98.50;;;6.80;;
5955;SDS011;3004;48.080;11.600;2022-07-29T06:50:58;97.90;;;6.47;;
5955;SDS011;3004;48.080;11.600;2022-07-29T06:53:26;98.37;;;6.93;;
5955;SDS011;3004;48.080;11.600;2022-07-29T06:55:54;97.87;;;6.70;;
5955;SDS011;3004;48.080;11.600;2022-07-29T06:58:23;98.80;;;7.30;;
5955;SDS011;3004;48.080;11.600;2022-07-29T07:00:50;98.47;;;6.90;;
5955;SDS011;3004;48.080;11.600;2022-07-29T07:03:19;98.83;;;7.60;;
5955;SDS011;3004;48.080;11.600;2022-07-29T07:05:47;99.30;;;8.40;;
5955;SDS011;3004;48.080;11.600;2022-07-29T07:08:19;98.17;;;7.00;;
5955;SDS011;3004;48.080;11.600;2022-07-29T07:10:47;98.30;;;6.43;;
5955;SDS011;3004;48.080;11.600;2022-07-29T07:13:16;98.30;;;7.00;;
5955;SDS011;3004;48.080;11.600;2022-07-29T07:15:45;97.60;;;6.73;;
5955;SDS011;3004;48.080;11.600;2022-07-29T07:18:15;98.57;;;7.77;;
5955;SDS011;3004;48.080;11.600;2022-07-29T07:20:43;99.00;;;8.20;;
5955;SDS011;3004;48.080;11.600;2022-07-29T07:23:10;98.20;;;6.50;;
5955;SDS011;3004;48.080;11.600;2022-07-29T07:25:39;98.00;;;6.63;;
5955;SDS011;3004;48.080;11.600;2022-07-29T07:28:07;100.40;;;9.83;;
5955;SDS011;3004;48.080;11.600;2022-07-29T07:30:35;98.80;;;8.90;;
5955;SDS011;3004;48.080;11.600;2022-07-29T07:33:05;98.00;;;6.47;;
5955;SDS011;3004;48.080;11.600;2022-07-29T07:35:32;97.80;;;6.53;;
5955;SDS011;3004;48.080;11.600;2022-07-29T07:41:08;97.20;;;6.40;;
5955;SDS011;3004;48.080;11.600;2022-07-29T07:43:39;98.10;;;7.33;;
5955;SDS011;3004;48.080;11.600;2022-07-29T07:46:09;98.87;;;9.13;;
5955;SDS011;3004;48.080;11.600;2022-07-29T07:48:36;98.07;;;7.57;;
5955;SDS011;3004;48.080;11.600;2022-07-29T07:51:06;97.30;;;6.20;;
5955;SDS011;3004;48.080;11.600;2022-07-29T07:53:33;97.77;;;6.90;;
5955;SDS011;3004;48.080;11.600;2022-07-29T07:56:00;97.53;;;6.50;;
5955;SDS011;3004;48.080;11.600;2022-07-29T07:58:32;97.20;;;5.93;;
5955;SDS011;3004;48.080;11.600;2022-07-29T08:01:00;97.47;;;6.57;;
5955;SDS011;3004;48.080;11.600;2022-07-29T08:03:27;97.87;;;6.67;;
5955;SDS011;3004;48.080;11.600;2022-07-29T08:05:57;98.17;;;7.77;;
5955;SDS011;3004;48.080;11.600;2022-07-29T08:08:25;97.20;;;6.23;;
5955;SDS011;3004;48.080;11.600;2022-07-29T08:10:55;97.57;;;6.40;;
5955;SDS011;3004;48.080;11.600;2022-07-29T08:13:55;97.30;;;6.00;;
5955;SDS011;3004;48.080;11.600;2022-07-29T08:16:15;97.07;;;6.20;;
5955;SDS011;3004;48.080;11.600;2022-07-29T08:18:43;97.57;;;6.63;;
5955;SDS011;3004;48.080;11.600;2022-07-29T08:21:21;97.73;;;7.10;;
5955;SDS011;3004;48.080;11.600;2022-07-29T08:23:52;98.23;;;7.90;;
5955;SDS011;3004;48.080;11.600;2022-07-29T08:26:42;97.77;;;6.70;;
5955;SDS011;3004;48.080;11.600;2022-07-29T08:29:14;98.10;;;7.00;;
5955;SDS011;3004;48.080;11.600;2022-07-29T08:31:41;97.60;;;6.90;;
5955;SDS011;3004;48.080;11.600;2022-07-29T08:34:08;99.77;;;11.10;;
5955;SDS011;3004;48.080;11.600;2022-07-29T08:36:35;97.77;;;6.00;;
5955;SDS011;3004;48.080;11.600;2022-07-29T08:39:03;98.27;;;7.37;;
5955;SDS011;3004;48.080;11.600;2022-07-29T08:41:31;98.00;;;6.67;;
5955;SDS011;3004;48.080;11.600;2022-07-29T08:44:04;97.90;;;6.50;;
5955;SDS011;3004;48.080;11.600;2022-07-29T08:46:32;97.87;;;6.57;;
5955;SDS011;3004;48.080;11.600;2022-07-29T08:49:06;98.10;;;7.20;;
5955;SDS011;3004;48.080;11.600;2022-07-29T08:51:39;98.07;;;7.17;;
5955;SDS011;3004;48.080;11.600;2022-07-29T08:54:24;97.57;;;6.73;;
5955;SDS011;3004;48.080;11.600;2022-07-29T08:56:52;98.00;;;6.80;;
5955;SDS011;3004;48.080;11.600;2022-07-29T08:59:20;98.17;;;7.30;;
5955;SDS011;3004;48.080;11.600;2022-07-29T09:01:53;97.53;;;6.40;;
5955;SDS011;3004;48.080;11.600;2022-07-29T09:04:26;97.20;;;6.50;;
5955;SDS011;3004;48.080;11.600;2022-07-29T09:06:59;97.87;;;6.73;;
5955;SDS011;3004;48.080;11.600;2022-07-29T09:09:30;97.40;;;6.20;;
5955;SDS011;3004;48.080;11.600;2022-07-29T09:11:59;97.17;;;6.03;;
5955;SDS011;3004;48.080;11.600;2022-07-29T09:14:30;97.07;;;6.43;;
5955;SDS011;3004;48.080;11.600;2022-07-29T09:16:59;97.97;;;7.20;;
5955;SDS011;3004;48.080;11.600;2022-07-29T09:19:27;98.17;;;7.70;;
5955;SDS011;3004;48.080;11.600;2022-07-29T09:21:58;97.47;;;6.30;;
5955;SDS011;3004;48.080;11.600;2022-07-29T09:24:36;99.27;;;6.60;;
5955;SDS011;3004;48.080;11.600;2022-07-29T09:27:10;98.27;;;7.20;;
5955;SDS011;3004;48.080;11.600;2022-07-29T09:29:56;98.17;;;9.27;;
5955;SDS011;3004;48.080;11.600;2022-07-29T09:32:35;98.73;;;8.67;;
5955;SDS011;3004;48.080;11.600;2022-07-29T09:35:24;98.07;;;7.93;;
5955;SDS011;3004;48.080;11.600;2022-07-29T09:37:52;98.23;;;7.27;;
5955;SDS011;3004;48.080;11.600;2022-07-29T09:40:23;97.27;;;6.90;;
5955;SDS011;3004;48.080;11.600;2022-07-29T09:42:52;97.50;;;6.97;;
5955;SDS011;3004;48.080;11.600;2022-07-29T09:45:30;97.90;;;6.40;;
5955;SDS011;3004;48.080;11.600;2022-07-29T09:54:26;98.40;;;8.10;;
5955;SDS011;3004;48.080;11.600;2022-07-29T09:56:59;97.37;;;6.53;;
5955;SDS011;3004;48.080;11.600;2022-07-29T09:59:55;97.10;;;6.50;;
5955;SDS011;3004;48.080;11.600;2022-07-29T10:02:29;98.37;;;8.87;;
5955;SDS011;3004;48.080;11.600;2022-07-29T10:05:16;99.77;;;10.43;;
5955;SDS011;3004;48.080;11.600;2022-07-29T10:10:34;99.20;;;8.93;;
5955;SDS011;3004;48.080;11.600;2022-07-29T10:13:05;99.40;;;9.77;;
5955;SDS011;3004;48.080;11.600;2022-07-29T10:15:41;99.90;;;9.10;;
5955;SDS011;3004;48.080;11.600;2022-07-29T10:18:28;99.37;;;8.87;;
5955;SDS011;3004;48.080;11.600;2022-07-29T10:21:08;98.40;;;8.10;;
5955;SDS011;3004;48.080;11.600;2022-07-29T10:23:48;98.50;;;8.03;;
5955;SDS011;3004;48.080;11.600;2022-07-29T10:26:21;101.53;;;6.60;;
5955;SDS011;3004;48.080;11.600;2022-07-29T10:28:49;99.27;;;9.80;;
5955;SDS011;3004;48.080;11.600;2022-07-29T10:31:21;98.90;;;8.83;;
5955;SDS011;3004;48.080;11.600;2022-07-29T10:34:04;98.83;;;9.00;;
5955;SDS011;3004;48.080;11.600;2022-07-29T10:36:43;102.07;;;15.47;;
5955;SDS011;3004;48.080;11.600;2022-07-29T10:39:27;102.17;;;15.13;;
5955;SDS011;3004;48.080;11.600;2022-07-29T10:42:11;102.30;;;16.03;;
5955;SDS011;3004;48.080;11.600;2022-07-29T10:44:45;101.13;;;13.77;;
5955;SDS011;3004;48.080;11.600;2022-07-29T10:47:22;100.77;;;13.13;;
5955;SDS011;3004;48.080;11.600;2022-07-29T10:49:55;102.80;;;16.53;;
5955;SDS011;3004;48.080;11.600;2022-07-29T10:55:37;98.70;;;7.77;;
5955;SDS011;3004;48.080;11.600;2022-07-29T10:58:13;98.97;;;9.10;;
5955;SDS011;3004;48.080;11.600;2022-07-29T11:00:51;97.87;;;7.83;;
5955;SDS011;3004;48.080;11.600;2022-07-29T11:03:42;97.20;;;6.67;;
5955;SDS011;3004;48.080;11.600;2022-07-29T11:06:11;97.60;;;6.30;;
5955;SDS011;3004;48.080;11.600;2022-07-29T11:08:40;97.67;;;7.00;;
5955;SDS011;3004;48.080;11.600;2022-07-29T11:14:05;98.03;;;7.30;;
5955;SDS011;3004;48.080;11.600;2022-07-29T11:19:30;97.70;;;6.27;;
5955;SDS011;3004;48.080;11.600;2022-07-29T11:21:57;98.47;;;8.10;;
5955;SDS011;3004;48.080;11.600;2022-07-29T11:24:32;99.80;;;10.20;;
5955;SDS011;3004;48.080;11.600;2022-07-29T11:27:18;99.17;;;9.60;;
5955;SDS011;3004;48.080;11.600;2022-07-29T11:30:04;97.93;;;6.90;;
5955;SDS011;3004;48.080;11.600;2022-07-29T11:32:38;97.90;;;6.63;;
5955;SDS011;3004;48.080;11.600;2022-07-29T11:35:17;98.87;;;8.57;;
5955;SDS011;3004;48.080;11.600;2022-07-29T11:38:23;98.17;;;7.20;;
5955;SDS011;3004;48.080;11.600;2022-07-29T11:43:49;98.10;;;7.03;;
5955;SDS011;3004;48.080;11.600;2022-07-29T11:49:19;98.00;;;6.63;;
5955;SDS011;3004;48.080;11.600;2022-07-29T11:51:52;97.90;;;7.23;;
5955;SDS011;3004;48.080;11.600;2022-07-29T11:54:23;97.80;;;7.33;;
5955;SDS011;3004;48.080;11.600;2022-07-29T11:56:52;97.87;;;7.00;;
5955;SDS011;3004;48.080;11.600;2022-07-29T11:59:23;97.37;;;6.13;;
5955;SDS011;3004;48.080;11.600;2022-07-29T12:01:54;97.63;;;6.27;;
5955;SDS011;3004;48.080;11.600;2022-07-29T12:04:24;97.77;;;6.73;;
5955;SDS011;3004;48.080;11.600;2022-07-29T12:06:52;97.90;;;6.57;;
5955;SDS011;3004;48.080;11.600;2022-07-29T12:09:24;98.17;;;6.80;;
5955;SDS011;3004;48.080;11.600;2022-07-29T12:11:56;97.67;;;7.00;;
5955;SDS011;3004;48.080;11.600;2022-07-29T12:14:27;97.50;;;6.53;;
5955;SDS011;3004;48.080;11.600;2022-07-29T12:16:55;98.53;;;8.33;;
5955;SDS011;3004;48.080;11.600;2022-07-29T12:19:23;99.10;;;9.13;;
5955;SDS011;3004;48.080;11.600;2022-07-29T12:21:51;98.80;;;8.00;;
5955;SDS011;3004;48.080;11.600;2022-07-29T12:24:20;100.03;;;10.80;;
5955;SDS011;3004;48.080;11.600;2022-07-29T12:26:51;98.37;;;8.27;;
5955;SDS011;3004;48.080;11.600;2022-07-29T12:29:19;98.57;;;8.70;;
5955;SDS011;3004;48.080;11.600;2022-07-29T12:31:53;99.07;;;9.03;;
5955;SDS011;3004;48.080;11.600;2022-07-29T12:34:22;98.27;;;7.70;;
5955;SDS011;3004;48.080;11.600;2022-07-29T12:36:53;99.07;;;9.50;;
5955;SDS011;3004;48.080;11.600;2022-07-29T12:39:20;99.00;;;9.07;;
5955;SDS011;3004;48.080;11.600;2022-07-29T12:41:47;99.57;;;9.97;;
5955;SDS011;3004;48.080;11.600;2022-07-29T12:44:14;97.40;;;6.80;;
5955;SDS011;3004;48.080;11.600;2022-07-29T12:46:41;97.80;;;6.90;;
5955;SDS011;3004;48.080;11.600;2022-07-29T12:49:15;97.90;;;7.90;;
5955;SDS011;3004;48.080;11.600;2022-07-29T12:51:47;98.73;;;8.77;;
5955;SDS011;3004;48.080;11.600;2022-07-29T12:54:14;97.30;;;6.37;;
5955;SDS011;3004;48.080;11.600;2022-07-29T12:56:44;97.77;;;6.67;;
5955;SDS011;3004;48.080;11.600;2022-07-29T12:59:16;97.70;;;7.03;;
5955;SDS011;3004;48.080;11.600;2022-07-29T13:01:44;97.80;;;7.10;;
5955;SDS011;3004;48.080;11.600;2022-07-29T13:04:25;97.80;;;6.70;;
5955;SDS011;3004;48.080;11.600;2022-07-29T13:06:58;97.80;;;6.60;;
5955;SDS011;3004;48.080;11.600;2022-07-29T13:09:35;97.43;;;6.23;;
5955;SDS011;3004;48.080;11.600;2022-07-29T13:12:05;98.60;;;8.67;;
5955;SDS011;3004;48.080;11.600;2022-07-29T13:14:39;99.50;;;11.70;;
5955;SDS011;3004;48.080;11.600;2022-07-29T13:17:09;100.40;;;12.00;;
5955;SDS011;3004;48.080;11.600;2022-07-29T13:19:40;100.47;;;12.43;;
5955;SDS011;3004;48.080;11.600;2022-07-29T13:22:08;98.17;;;7.77;;
5955;SDS011;3004;48.080;11.600;2022-07-29T13:24:44;98.77;;;8.60;;
5955;SDS011;3004;48.080;11.600;2022-07-29T13:27:13;98.07;;;7.37;;
5955;SDS011;3004;48.080;11.600;2022-07-29T13:29:40;98.37;;;6.53;;
5955;SDS011;3004;48.080;11.600;2022-07-29T13:32:07;99.40;;;6.77;;
5955;SDS011;3004;48.080;11.600;2022-07-29T13:34:34;98.50;;;8.17;;
5955;SDS011;3004;48.080;11.600;2022-07-29T13:37:06;97.60;;;7.37;;
5955;SDS011;3004;48.080;11.600;2022-07-29T13:39:33;98.37;;;8.37;;
5955;SDS011;3004;48.080;11.600;2022-07-29T13:42:02;98.27;;;7.33;;
5955;SDS011;3004;48.080;11.600;2022-07-29T13:44:29;97.90;;;7.37;;
5955;SDS011;3004;48.080;11.600;2022-07-29T13:46:56;97.27;;;6.70;;
5955;SDS011;3004;48.080;11.600;2022-07-29T13:49:23;97.30;;;6.40;;
5955;SDS011;3004;48.080;11.600;2022-07-29T13:51:54;98.27;;;7.97;;
5955;SDS011;3004;48.080;11.600;2022-07-29T13:54:21;99.63;;;10.37;;
5955;SDS011;3004;48.080;11.600;2022-07-29T13:56:49;100.60;;;12.73;;
5955;SDS011;3004;48.080;11.600;2022-07-29T13:59:17;100.67;;;13.17;;
5955;SDS011;3004;48.080;11.600;2022-07-29T14:01:44;98.37;;;8.90;;
5955;SDS011;3004;48.080;11.600;2022-07-29T14:04:13;98.60;;;9.13;;
5955;SDS011;3004;48.080;11.600;2022-07-29T14:06:40;100.10;;;11.90;;
5955;SDS011;3004;48.080;11.600;2022-07-29T14:09:09;99.90;;;11.03;;
5955;SDS011;3004;48.080;11.600;2022-07-29T14:11:36;97.50;;;7.10;;
5955;SDS011;3004;48.080;11.600;2022-07-29T14:14:03;98.40;;;8.30;;
5955;SDS011;3004;48.080;11.600;2022-07-29T14:16:30;102.00;;;12.20;;
5955;SDS011;3004;48.080;11.600;2022-07-29T14:18:57;99.00;;;9.40;;
5955;SDS011;3004;48.080;11.600;2022-07-29T14:21:24;100.07;;;12.60;;
5955;SDS011;3004;48.080;11.600;2022-07-29T14:23:51;99.57;;;11.00;;
5955;SDS011;3004;48.080;11.600;2022-07-29T14:26:21;97.80;;;6.80;;
5955;SDS011;3004;48.080;11.600;2022-07-29T14:28:48;97.73;;;7.00;;
5955;SDS011;3004;48.080;11.600;2022-07-29T14:31:15;98.17;;;8.27;;
5955;SDS011;3004;48.080;11.600;2022-07-29T14:33:42;97.97;;;7.60;;
5955;SDS011;3004;48.080;11.600;2022-07-29T14:36:09;98.00;;;8.00;;
5955;SDS011;3004;48.080;11.600;2022-07-29T14:38:39;99.07;;;8.70;;
5955;SDS011;3004;48.080;11.600;2022-07-29T14:41:07;100.60;;;9.97;;
5955;SDS011;3004;48.080;11.600;2022-07-29T14:43:38;99.27;;;9.90;;
5955;SDS011;3004;48.080;11.600;2022-07-29T14:46:05;98.27;;;8.50;;
5955;SDS011;3004;48.080;11.600;2022-07-29T14:48:32;98.77;;;9.37;;
5955;SDS011;3004;48.080;11.600;2022-07-29T14:51:00;99.07;;;10.00;;
5955;SDS011;3004;48.080;11.600;2022-07-29T14:53:30;98.47;;;9.57;;
5955;SDS011;3004;48.080;11.600;2022-07-29T14:55:58;98.87;;;8.83;;
5955;SDS011;3004;48.080;11.600;2022-07-29T14:58:25;98.17;;;7.50;;
5955;SDS011;3004;48.080;11.600;2022-07-29T15:00:54;98.37;;;8.30;;
5955;SDS011;3004;48.080;11.600;2022-07-29T15:03:24;97.90;;;7.67;;
5955;SDS011;3004;48.080;11.600;2022-07-29T15:05:51;99.20;;;10.00;;
5955;SDS011;3004;48.080;11.600;2022-07-29T15:08:18;98.30;;;7.60;;
5955;SDS011;3004;48.080;11.600;2022-07-29T15:10:47;97.83;;;7.03;;
5955;SDS011;3004;48.080;11.600;2022-07-29T15:13:14;98.00;;;7.33;;
5955;SDS011;3004;48.080;11.600;2022-07-29T15:15:43;97.50;;;6.67;;
5955;SDS011;3004;48.080;11.600;2022-07-29T15:18:11;97.47;;;6.77;;
5955;SDS011;3004;48.080;11.600;2022-07-29T15:20:38;97.77;;;7.37;;
5955;SDS011;3004;48.080;11.600;2022-07-29T15:23:05;98.10;;;8.17;;
5955;SDS011;3004;48.080;11.600;2022-07-29T15:25:34;97.10;;;6.80;;
5955;SDS011;3004;48.080;11.600;2022-07-29T15:28:04;98.17;;;7.50;;
5955;SDS011;3004;48.080;11.600;2022-07-29T15:30:33;97.30;;;6.83;;
5955;SDS011;3004;48.080;11.600;2022-07-29T15:33:05;97.67;;;6.80;;